Stamford Pioneer — VRJD7 — position and weather

sailwx.info

Track history (hours):
 
Tides and Currents Weather Stations Pressure Air Temp Water Temp Dewpoint Dewpoint Depression Visibility Wind Speed Wind Dir Waves Ship Positions

Stamford Pioneer

Last reported at 2015-Jul-04 01:27 UTC. Time now 2015-Jul-05 04:26 UTC.
Position N 14°07' W 061°37'.

Length 180 m; draft 9.7 m.

Type: Cargo ship. MMSI: 477462800.

Date/timePositionNaut miles runAvg speedWind from/ knotsBaromVisibWave heightAir tempDewpointWater temp
2015-Jul-04 01:27N 14°07' W 061°37'8 8.9
2015-Jul-04 00:33N 14°14' W 061°40'9 9.1
2015-Jul-03 23:33N 14°22' W 061°44'10 9.8
2015-Jul-03 22:33N 14°31' W 061°47'  
2015-Jun-27 07:21N 27°43' W 082°32'8 9.9
2015-Jun-27 06:33N 27°50' W 082°27'5 4.6
2015-Jun-27 05:30N 27°54' W 082°25'0 0.0
2015-Jun-27 04:30N 27°54' W 082°25'0 0.0
2015-Jun-27 03:31N 27°54' W 082°25'0 0.0
2015-Jun-27 02:31N 27°54' W 082°25'0 0.0
2015-Jun-27 01:31N 27°54' W 082°25'0 0.0
2015-Jun-27 00:31N 27°54' W 082°25'0 0.0
2015-Jun-26 23:31N 27°54' W 082°25'0 0.0
2015-Jun-26 22:30N 27°54' W 082°25'0 0.0
2015-Jun-26 21:27N 27°54' W 082°25'0 0.0
2015-Jun-26 20:31N 27°54' W 082°25'0 0.0
2015-Jun-26 19:31N 27°54' W 082°25'0 0.0
2015-Jun-26 18:33N 27°54' W 082°25'0 0.0
2015-Jun-26 17:28N 27°54' W 082°25'0 0.0
2015-Jun-26 16:34N 27°54' W 082°25'0 0.0
2015-Jun-26 15:31N 27°54' W 082°25'0 0.0
2015-Jun-26 14:30N 27°54' W 082°25'0 0.0
2015-Jun-26 13:31N 27°54' W 082°25'0 0.0
2015-Jun-26 12:33N 27°54' W 082°25'0 0.0
2015-Jun-26 11:31N 27°54' W 082°25'0 0.0
2015-Jun-26 10:30N 27°54' W 082°25'0 0.0
2015-Jun-26 09:33N 27°54' W 082°25'0 0.0
2015-Jun-26 08:33N 27°54' W 082°25'0 0.0
2015-Jun-26 07:30N 27°54' W 082°25'0 0.0
2015-Jun-26 06:31N 27°54' W 082°25'0 0.0
2015-Jun-26 05:31N 27°54' W 082°25'0 0.0
2015-Jun-26 04:31N 27°54' W 082°25'0 0.0
2015-Jun-26 03:30N 27°54' W 082°25'0 0.0
2015-Jun-26 02:31N 27°54' W 082°25'0 0.0
2015-Jun-26 01:28N 27°54' W 082°25'0 0.0
2015-Jun-26 00:33N 27°54' W 082°25'0 0.0
2015-Jun-25 23:31N 27°54' W 082°25'0 0.0
2015-Jun-25 22:31N 27°54' W 082°25'0 0.0
2015-Jun-25 21:31N 27°54' W 082°25'0 0.0
2015-Jun-25 20:34N 27°54' W 082°25'0 0.0
2015-Jun-25 19:31N 27°54' W 082°25'0 0.0
2015-Jun-25 18:31N 27°54' W 082°25'0 0.0
2015-Jun-25 17:31N 27°54' W 082°25'0 0.0
2015-Jun-25 16:31N 27°54' W 082°25'0 0.0
2015-Jun-25 15:31N 27°54' W 082°25'0 0.0
2015-Jun-25 14:31N 27°54' W 082°25'0 0.0
2015-Jun-25 13:30N 27°54' W 082°25'0 0.0
2015-Jun-25 12:31N 27°54' W 082°25'0 0.0
2015-Jun-25 11:31N 27°54' W 082°25'1 1.1
2015-Jun-25 10:33N 27°54' W 082°26'10 9.5
2015-Jun-25 09:33N 27°45' W 082°31'1411.4
2015-Jun-25 08:20N 27°36' W 082°43'  
Track history (hours):
 
Tides and Currents Weather Stations Pressure Air Temp Water Temp Dewpoint Dewpoint Depression Visibility Wind Speed Wind Dir Waves Ship Positions

Stamford Pioneer

Last reported at 2015-Jul-04 01:27 UTC. Time now 2015-Jul-05 04:26 UTC.
Position N 14°07' W 061°37'.

Length 180 m; draft 9.7 m.

Type: Cargo ship. MMSI: 477462800.

Date/timePositionNaut miles runAvg speedWind from/ knotsBaromVisibWave heightAir tempDewpointWater temp
2015-Jul-04 01:27N 14°07' W 061°37'8 8.9
2015-Jul-04 00:33N 14°14' W 061°40'9 9.1
2015-Jul-03 23:33N 14°22' W 061°44'10 9.8
2015-Jul-03 22:33N 14°31' W 061°47'  
2015-Jun-27 07:21N 27°43' W 082°32'8 9.9
2015-Jun-27 06:33N 27°50' W 082°27'5 4.6
2015-Jun-27 05:30N 27°54' W 082°25'0 0.0
2015-Jun-27 04:30N 27°54' W 082°25'0 0.0
2015-Jun-27 03:31N 27°54' W 082°25'0 0.0
2015-Jun-27 02:31N 27°54' W 082°25'0 0.0
2015-Jun-27 01:31N 27°54' W 082°25'0 0.0
2015-Jun-27 00:31N 27°54' W 082°25'0 0.0
2015-Jun-26 23:31N 27°54' W 082°25'0 0.0
2015-Jun-26 22:30N 27°54' W 082°25'0 0.0
2015-Jun-26 21:27N 27°54' W 082°25'0 0.0
2015-Jun-26 20:31N 27°54' W 082°25'0 0.0
2015-Jun-26 19:31N 27°54' W 082°25'0 0.0
2015-Jun-26 18:33N 27°54' W 082°25'0 0.0
2015-Jun-26 17:28N 27°54' W 082°25'0 0.0
2015-Jun-26 16:34N 27°54' W 082°25'0 0.0
2015-Jun-26 15:31N 27°54' W 082°25'0 0.0
2015-Jun-26 14:30N 27°54' W 082°25'0 0.0
2015-Jun-26 13:31N 27°54' W 082°25'0 0.0
2015-Jun-26 12:33N 27°54' W 082°25'0 0.0
2015-Jun-26 11:31N 27°54' W 082°25'0 0.0
2015-Jun-26 10:30N 27°54' W 082°25'0 0.0
2015-Jun-26 09:33N 27°54' W 082°25'0 0.0
2015-Jun-26 08:33N 27°54' W 082°25'0 0.0
2015-Jun-26 07:30N 27°54' W 082°25'0 0.0
2015-Jun-26 06:31N 27°54' W 082°25'0 0.0
2015-Jun-26 05:31N 27°54' W 082°25'0 0.0
2015-Jun-26 04:31N 27°54' W 082°25'0 0.0
2015-Jun-26 03:30N 27°54' W 082°25'0 0.0
2015-Jun-26 02:31N 27°54' W 082°25'0 0.0
2015-Jun-26 01:28N 27°54' W 082°25'0 0.0
2015-Jun-26 00:33N 27°54' W 082°25'0 0.0
2015-Jun-25 23:31N 27°54' W 082°25'0 0.0
2015-Jun-25 22:31N 27°54' W 082°25'0 0.0
2015-Jun-25 21:31N 27°54' W 082°25'0 0.0
2015-Jun-25 20:34N 27°54' W 082°25'0 0.0
2015-Jun-25 19:31N 27°54' W 082°25'0 0.0
2015-Jun-25 18:31N 27°54' W 082°25'0 0.0
2015-Jun-25 17:31N 27°54' W 082°25'0 0.0
2015-Jun-25 16:31N 27°54' W 082°25'0 0.0
2015-Jun-25 15:31N 27°54' W 082°25'0 0.0
2015-Jun-25 14:31N 27°54' W 082°25'0 0.0
2015-Jun-25 13:30N 27°54' W 082°25'0 0.0
2015-Jun-25 12:31N 27°54' W 082°25'0 0.0
2015-Jun-25 11:31N 27°54' W 082°25'1 1.1
2015-Jun-25 10:33N 27°54' W 082°26'10 9.5
2015-Jun-25 09:33N 27°45' W 082°31'1411.4
2015-Jun-25 08:20N 27°36' W 082°43'  

Dump ship's entire track history